sensor_id;sensor_type;location;lat;lon;timestamp;pressure;altitude;pressure_sealevel;temperature;humidity
68169;BME280;54981;50.206;15.978;2023-01-29T00:01:26;99947.31;;;-2.50;100.00
68169;BME280;54981;50.206;15.978;2023-01-29T00:05:27;99941.44;;;-2.35;100.00
68169;BME280;54981;50.206;15.978;2023-01-29T00:09:27;99935.50;;;-2.23;100.00
68169;BME280;54981;50.206;15.978;2023-01-29T00:13:28;99926.38;;;-1.84;100.00
68169;BME280;54981;50.206;15.978;2023-01-29T00:17:28;99928.00;;;-1.94;100.00
68169;BME280;54981;50.206;15.978;2023-01-29T00:21:29;99920.56;;;-1.56;100.00
68169;BME280;54981;50.206;15.978;2023-01-29T00:25:30;99928.75;;;-2.06;100.00
68169;BME280;54981;50.206;15.978;2023-01-29T00:29:30;99924.06;;;-2.31;100.00
68169;BME280;54981;50.206;15.978;2023-01-29T00:33:31;99924.94;;;-2.32;100.00
68169;BME280;54981;50.206;15.978;2023-01-29T00:37:31;99946.56;;;-2.40;100.00
68169;BME280;54981;50.206;15.978;2023-01-29T00:41:31;99943.84;;;-2.49;100.00
68169;BME280;54981;50.206;15.978;2023-01-29T00:46:04;99944.78;;;-2.45;100.00
68169;BME280;54981;50.206;15.978;2023-01-29T00:50:08;99933.72;;;-2.24;100.00
68169;BME280;54981;50.206;15.978;2023-01-29T00:54:08;99930.28;;;-2.23;100.00
68169;BME280;54981;50.206;15.978;2023-01-29T00:58:09;99938.31;;;-2.06;100.00
68169;BME280;54981;50.206;15.978;2023-01-29T01:02:09;99943.47;;;-2.09;100.00
68169;BME280;54981;50.206;15.978;2023-01-29T01:06:28;99933.84;;;-2.15;100.00
68169;BME280;54981;50.206;15.978;2023-01-29T01:10:30;99943.31;;;-2.22;100.00
68169;BME280;54981;50.206;15.978;2023-01-29T01:14:32;99931.50;;;-1.90;100.00
68169;BME280;54981;50.206;15.978;2023-01-29T01:18:35;99915.00;;;-1.89;100.00
68169;BME280;54981;50.206;15.978;2023-01-29T01:22:37;99903.91;;;-1.67;100.00
68169;BME280;54981;50.206;15.978;2023-01-29T01:26:37;99904.69;;;-1.80;100.00
68169;BME280;54981;50.206;15.978;2023-01-29T01:30:38;99905.56;;;-1.77;100.00
68169;BME280;54981;50.206;15.978;2023-01-29T01:34:38;99903.00;;;-1.72;100.00
68169;BME280;54981;50.206;15.978;2023-01-29T01:38:38;99903.09;;;-1.63;100.00
68169;BME280;54981;50.206;15.978;2023-01-29T01:42:47;99900.28;;;-1.81;100.00
68169;BME280;54981;50.206;15.978;2023-01-29T01:46:48;99892.63;;;-1.66;100.00
68169;BME280;54981;50.206;15.978;2023-01-29T01:50:55;99881.91;;;-1.94;100.00
68169;BME280;54981;50.206;15.978;2023-01-29T01:54:57;99890.53;;;-2.01;100.00
68169;BME280;54981;50.206;15.978;2023-01-29T01:58:59;99891.66;;;-1.77;100.00
68169;BME280;54981;50.206;15.978;2023-01-29T02:03:00;99880.28;;;-1.82;100.00
68169;BME280;54981;50.206;15.978;2023-01-29T02:07:20;99883.75;;;-1.83;100.00
68169;BME280;54981;50.206;15.978;2023-01-29T02:11:39;99899.16;;;-2.05;100.00
68169;BME280;54981;50.206;15.978;2023-01-29T02:15:39;99903.34;;;-2.21;100.00
68169;BME280;54981;50.206;15.978;2023-01-29T02:32:40;99915.72;;;-2.04;100.00
68169;BME280;54981;50.206;15.978;2023-01-29T02:37:04;99902.53;;;-2.15;100.00
68169;BME280;54981;50.206;15.978;2023-01-29T02:41:14;99889.59;;;-2.06;100.00
68169;BME280;54981;50.206;15.978;2023-01-29T02:45:26;99870.84;;;-1.66;100.00
68169;BME280;54981;50.206;15.978;2023-01-29T02:49:47;99875.22;;;-1.64;100.00
68169;BME280;54981;50.206;15.978;2023-01-29T02:54:03;99874.91;;;-1.96;100.00
68169;BME280;54981;50.206;15.978;2023-01-29T02:58:28;99870.84;;;-1.66;100.00
68169;BME280;54981;50.206;15.978;2023-01-29T03:02:36;99884.75;;;-1.69;100.00
68169;BME280;54981;50.206;15.978;2023-01-29T03:06:42;99892.19;;;-2.09;100.00
68169;BME280;54981;50.206;15.978;2023-01-29T03:10:56;99897.97;;;-2.33;100.00
68169;BME280;54981;50.206;15.978;2023-01-29T03:14:59;99900.38;;;-1.74;100.00
68169;BME280;54981;50.206;15.978;2023-01-29T03:23:25;99903.03;;;-1.70;100.00
68169;BME280;54981;50.206;15.978;2023-01-29T03:27:57;99899.41;;;-1.83;100.00
68169;BME280;54981;50.206;15.978;2023-01-29T03:32:18;99893.53;;;-1.62;100.00
68169;BME280;54981;50.206;15.978;2023-01-29T03:40:46;99903.72;;;-1.87;100.00
68169;BME280;54981;50.206;15.978;2023-01-29T03:53:35;99890.03;;;-1.64;100.00
68169;BME280;54981;50.206;15.978;2023-01-29T03:58:04;99885.69;;;-1.62;100.00
68169;BME280;54981;50.206;15.978;2023-01-29T04:02:12;99875.19;;;-1.67;100.00
68169;BME280;54981;50.206;15.978;2023-01-29T04:06:22;99871.59;;;-1.81;100.00
68169;BME280;54981;50.206;15.978;2023-01-29T04:10:25;99871.16;;;-2.20;100.00
68169;BME280;54981;50.206;15.978;2023-01-29T04:14:27;99881.16;;;-2.55;100.00
68169;BME280;54981;50.206;15.978;2023-01-29T04:18:28;99884.69;;;-2.54;100.00
68169;BME280;54981;50.206;15.978;2023-01-29T04:22:34;99885.59;;;-2.49;100.00
68169;BME280;54981;50.206;15.978;2023-01-29T04:27:28;99876.00;;;-2.52;100.00
68169;BME280;54981;50.206;15.978;2023-01-29T04:31:10;99878.53;;;-2.58;100.00
68169;BME280;54981;50.206;15.978;2023-01-29T04:35:31;99875.88;;;-2.61;100.00
68169;BME280;54981;50.206;15.978;2023-01-29T04:39:45;99858.69;;;-2.47;100.00
68169;BME280;54981;50.206;15.978;2023-01-29T04:52:26;99852.19;;;-2.81;100.00
68169;BME280;54981;50.206;15.978;2023-01-29T04:56:41;99847.78;;;-2.82;100.00
68169;BME280;54981;50.206;15.978;2023-01-29T05:00:48;99853.84;;;-2.85;100.00
68169;BME280;54981;50.206;15.978;2023-01-29T05:04:53;99848.56;;;-2.89;100.00
68169;BME280;54981;50.206;15.978;2023-01-29T05:08:56;99848.56;;;-2.89;100.00
68169;BME280;54981;50.206;15.978;2023-01-29T05:13:01;99837.28;;;-2.90;100.00
68169;BME280;54981;50.206;15.978;2023-01-29T05:17:08;99835.56;;;-2.88;100.00
68169;BME280;54981;50.206;15.978;2023-01-29T05:21:11;99827.75;;;-2.86;100.00
68169;BME280;54981;50.206;15.978;2023-01-29T05:25:27;99827.81;;;-2.83;100.00
68169;BME280;54981;50.206;15.978;2023-01-29T05:29:27;99839.16;;;-2.81;100.00
68169;BME280;54981;50.206;15.978;2023-01-29T05:33:29;99833.97;;;-2.78;100.00
68169;BME280;54981;50.206;15.978;2023-01-29T05:37:30;99838.31;;;-2.77;100.00
68169;BME280;54981;50.206;15.978;2023-01-29T05:41:30;99832.34;;;-2.68;100.00
68169;BME280;54981;50.206;15.978;2023-01-29T05:45:31;99829.72;;;-2.71;100.00
68169;BME280;54981;50.206;15.978;2023-01-29T05:49:32;99835.84;;;-2.66;100.00
68169;BME280;54981;50.206;15.978;2023-01-29T05:53:33;99840.03;;;-2.78;100.00
68169;BME280;54981;50.206;15.978;2023-01-29T05:57:33;99840.88;;;-2.80;100.00
68169;BME280;54981;50.206;15.978;2023-01-29T06:01:33;99832.16;;;-2.84;100.00
68169;BME280;54981;50.206;15.978;2023-01-29T06:05:37;99827.81;;;-2.82;100.00
68169;BME280;54981;50.206;15.978;2023-01-29T06:09:37;99828.69;;;-2.83;100.00
68169;BME280;54981;50.206;15.978;2023-01-29T06:13:38;99834.03;;;-2.72;100.00
68169;BME280;54981;50.206;15.978;2023-01-29T06:17:38;99843.38;;;-2.88;100.00
68169;BME280;54981;50.206;15.978;2023-01-29T06:21:38;99845.91;;;-2.94;100.00
68169;BME280;54981;50.206;15.978;2023-01-29T06:25:39;99846.78;;;-2.93;100.00
68169;BME280;54981;50.206;15.978;2023-01-29T06:29:39;99847.59;;;-2.96;100.00
68169;BME280;54981;50.206;15.978;2023-01-29T06:33:39;99841.53;;;-2.98;100.00
68169;BME280;54981;50.206;15.978;2023-01-29T06:37:40;99851.03;;;-3.00;100.00
68169;BME280;54981;50.206;15.978;2023-01-29T06:41:40;99851.03;;;-3.00;100.00
68169;BME280;54981;50.206;15.978;2023-01-29T06:45:55;99848.53;;;-2.92;100.00
68169;BME280;54981;50.206;15.978;2023-01-29T06:49:56;99849.63;;;-2.75;100.00
68169;BME280;54981;50.206;15.978;2023-01-29T06:53:58;99840.03;;;-2.78;100.00
68169;BME280;54981;50.206;15.978;2023-01-29T06:57:58;99849.63;;;-2.75;100.00
68169;BME280;54981;50.206;15.978;2023-01-29T07:01:59;99857.13;;;-2.32;100.00
68169;BME280;54981;50.206;15.978;2023-01-29T07:06:00;99863.06;;;-2.44;100.00
68169;BME280;54981;50.206;15.978;2023-01-29T07:10:00;99857.00;;;-2.42;100.00
68169;BME280;54981;50.206;15.978;2023-01-29T07:14:01;99874.09;;;-2.65;100.00
68169;BME280;54981;50.206;15.978;2023-01-29T07:18:02;99873.25;;;-2.64;100.00
68169;BME280;54981;50.206;15.978;2023-01-29T07:22:04;99887.69;;;-2.88;100.00
68169;BME280;54981;50.206;15.978;2023-01-29T07:26:05;99892.94;;;-2.85;100.00
68169;BME280;54981;50.206;15.978;2023-01-29T07:30:06;99894.72;;;-2.84;100.00
68169;BME280;54981;50.206;15.978;2023-01-29T07:34:07;99903.53;;;-2.72;100.00
68169;BME280;54981;50.206;15.978;2023-01-29T07:38:08;99898.25;;;-2.79;100.00
68169;BME280;54981;50.206;15.978;2023-01-29T07:42:09;99912.19;;;-2.75;100.00
68169;BME280;54981;50.206;15.978;2023-01-29T07:46:09;99915.28;;;-2.40;100.00
68169;BME280;54981;50.206;15.978;2023-01-29T07:50:10;99919.13;;;-2.75;100.00
68169;BME280;54981;50.206;15.978;2023-01-29T07:54:10;99919.09;;;-2.79;100.00
68169;BME280;54981;50.206;15.978;2023-01-29T07:58:11;99937.16;;;-2.89;100.00
68169;BME280;54981;50.206;15.978;2023-01-29T08:02:11;99943.28;;;-2.87;100.00
68169;BME280;54981;50.206;15.978;2023-01-29T08:06:12;99930.91;;;-3.02;100.00
68169;BME280;54981;50.206;15.978;2023-01-29T08:10:12;99929.28;;;-2.94;100.00
68169;BME280;54981;50.206;15.978;2023-01-29T08:14:12;99913.72;;;-2.89;100.00
68169;BME280;54981;50.206;15.978;2023-01-29T08:18:13;99914.72;;;-2.81;100.00
68169;BME280;54981;50.206;15.978;2023-01-29T08:22:14;99930.50;;;-2.70;100.00
68169;BME280;54981;50.206;15.978;2023-01-29T08:26:15;99939.97;;;-2.75;100.00
68169;BME280;54981;50.206;15.978;2023-01-29T08:30:16;99938.41;;;-2.64;100.00
68169;BME280;54981;50.206;15.978;2023-01-29T08:34:16;99931.38;;;-2.71;100.00
68169;BME280;54981;50.206;15.978;2023-01-29T08:38:16;99947.78;;;-2.77;100.00
68169;BME280;54981;50.206;15.978;2023-01-29T08:42:17;99946.09;;;-2.73;100.00
68169;BME280;54981;50.206;15.978;2023-01-29T08:46:17;99945.34;;;-2.66;100.00
68169;BME280;54981;50.206;15.978;2023-01-29T08:50:18;99959.13;;;-2.73;100.00
68169;BME280;54981;50.206;15.978;2023-01-29T08:54:18;99948.84;;;-2.63;100.00
68169;BME280;54981;50.206;15.978;2023-01-29T08:58:18;99943.47;;;-2.76;100.00
68169;BME280;54981;50.206;15.978;2023-01-29T09:02:19;99930.50;;;-2.70;100.00
68169;BME280;54981;50.206;15.978;2023-01-29T09:06:19;99929.88;;;-2.54;100.00
68169;BME280;54981;50.206;15.978;2023-01-29T09:10:20;99911.75;;;-2.43;100.00
68169;BME280;54981;50.206;15.978;2023-01-29T09:14:20;99901.22;;;-2.52;100.00
68169;BME280;54981;50.206;15.978;2023-01-29T09:18:20;99896.31;;;-2.26;100.00
68169;BME280;54981;50.206;15.978;2023-01-29T09:22:21;99895.22;;;-2.44;100.00
68169;BME280;54981;50.206;15.978;2023-01-29T09:26:21;99897.94;;;-2.38;100.00
68169;BME280;54981;50.206;15.978;2023-01-29T09:30:21;99898.63;;;-2.48;100.00
68169;BME280;54981;50.206;15.978;2023-01-29T09:34:22;99886.84;;;-2.17;100.00
68169;BME280;54981;50.206;15.978;2023-01-29T09:38:22;99885.28;;;-2.04;100.00
68169;BME280;54981;50.206;15.978;2023-01-29T09:46:37;99873.28;;;-1.83;100.00
68169;BME280;54981;50.206;15.978;2023-01-29T09:50:43;99885.09;;;-2.19;100.00
68169;BME280;54981;50.206;15.978;2023-01-29T09:55:00;99887.13;;;-1.94;100.00
68169;BME280;54981;50.206;15.978;2023-01-29T09:59:01;99887.88;;;-2.04;100.00
68169;BME280;54981;50.206;15.978;2023-01-29T10:16:40;99873.03;;;-2.11;100.00
68169;BME280;54981;50.206;15.978;2023-01-29T10:20:55;99871.53;;;-1.87;100.00
68169;BME280;54981;50.206;15.978;2023-01-29T10:25:05;99866.59;;;-1.57;100.00
68169;BME280;54981;50.206;15.978;2023-01-29T10:29:15;99844.63;;;-1.79;100.00
68169;BME280;54981;50.206;15.978;2023-01-29T10:33:23;99843.16;;;-1.51;100.00
68169;BME280;54981;50.206;15.978;2023-01-29T10:37:39;99833.72;;;-1.30;100.00
68169;BME280;54981;50.206;15.978;2023-01-29T10:41:42;99823.44;;;-2.09;100.00
68169;BME280;54981;50.206;15.978;2023-01-29T10:54:29;99804.34;;;-0.92;100.00
68169;BME280;54981;50.206;15.978;2023-01-29T10:58:53;99794.78;;;-0.87;100.00
68169;BME280;54981;50.206;15.978;2023-01-29T11:02:54;99812.97;;;-1.04;100.00
68169;BME280;54981;50.206;15.978;2023-01-29T11:06:57;99803.34;;;-1.14;100.00
68169;BME280;54981;50.206;15.978;2023-01-29T11:11:12;99802.09;;;-1.70;100.00
68169;BME280;54981;50.206;15.978;2023-01-29T11:15:23;99794.38;;;-1.53;100.00
68169;BME280;54981;50.206;15.978;2023-01-29T11:19:47;99793.44;;;-1.61;100.00
68169;BME280;54981;50.206;15.978;2023-01-29T11:23:47;99794.59;;;-1.21;100.00
68169;BME280;54981;50.206;15.978;2023-01-29T11:27:56;99784.44;;;-1.96;100.00
68169;BME280;54981;50.206;15.978;2023-01-29T11:31:57;99785.84;;;-1.32;100.00
68169;BME280;54981;50.206;15.978;2023-01-29T11:35:59;99778.91;;;-1.24;100.00
68169;BME280;54981;50.206;15.978;2023-01-29T11:39:59;99776.06;;;-1.61;100.00
68169;BME280;54981;50.206;15.978;2023-01-29T11:44:00;99767.44;;;-1.49;100.00
68169;BME280;54981;50.206;15.978;2023-01-29T11:48:00;99747.59;;;-1.15;100.00
68169;BME280;54981;50.206;15.978;2023-01-29T11:52:07;99744.06;;;-1.21;100.00
68169;BME280;54981;50.206;15.978;2023-01-29T12:00:26;99742.25;;;-1.39;100.00
68169;BME280;54981;50.206;15.978;2023-01-29T12:04:28;99748.16;;;-1.68;100.00
68169;BME280;54981;50.206;15.978;2023-01-29T12:08:34;99742.03;;;-1.67;100.00
68169;BME280;54981;50.206;15.978;2023-01-29T12:12:40;99734.44;;;-1.33;100.00
68169;BME280;54981;50.206;15.978;2023-01-29T12:17:05;99716.22;;;-1.22;100.00
68169;BME280;54981;50.206;15.978;2023-01-29T12:21:27;99719.75;;;-1.13;100.00
68169;BME280;54981;50.206;15.978;2023-01-29T12:25:42;99719.69;;;-1.22;100.00
68169;BME280;54981;50.206;15.978;2023-01-29T12:34:19;99720.31;;;-1.63;100.00
68169;BME280;54981;50.206;15.978;2023-01-29T12:38:22;99716.97;;;-1.43;100.00
68169;BME280;54981;50.206;15.978;2023-01-29T12:42:23;99703.97;;;-1.31;100.00
68169;BME280;54981;50.206;15.978;2023-01-29T12:46:27;99703.94;;;-1.42;100.00
68169;BME280;54981;50.206;15.978;2023-01-29T12:50:32;99711.72;;;-1.46;100.00
68169;BME280;54981;50.206;15.978;2023-01-29T12:54:39;99702.91;;;-1.64;100.00
68169;BME280;54981;50.206;15.978;2023-01-29T12:58:45;99697.00;;;-1.34;100.00
68169;BME280;54981;50.206;15.978;2023-01-29T13:02:57;99697.72;;;-1.58;100.00
68169;BME280;54981;50.206;15.978;2023-01-29T13:07:11;99702.81;;;-1.79;100.00
68169;BME280;54981;50.206;15.978;2023-01-29T13:11:28;99697.47;;;-1.95;100.00
68169;BME280;54981;50.206;15.978;2023-01-29T13:15:35;99695.81;;;-1.83;100.00
68169;BME280;54981;50.206;15.978;2023-01-29T13:19:49;99675.09;;;-1.54;100.00
68169;BME280;54981;50.206;15.978;2023-01-29T13:23:52;99663.00;;;-1.35;100.00
68169;BME280;54981;50.206;15.978;2023-01-29T13:27:54;99644.78;;;-1.18;100.00
68169;BME280;54981;50.206;15.978;2023-01-29T13:31:59;99633.56;;;-0.88;100.00
68169;BME280;54981;50.206;15.978;2023-01-29T13:36:02;99637.84;;;-1.16;100.00
68169;BME280;54981;50.206;15.978;2023-01-29T13:40:05;99646.53;;;-1.22;100.00
68169;BME280;54981;50.206;15.978;2023-01-29T13:44:17;99647.41;;;-1.20;100.00
68169;BME280;54981;50.206;15.978;2023-01-29T13:52:36;99631.78;;;-1.01;100.00
68169;BME280;54981;50.206;15.978;2023-01-29T13:56:57;99630.97;;;-0.87;100.00
68169;BME280;54981;50.206;15.978;2023-01-29T14:01:01;99644.72;;;-1.35;100.00
68169;BME280;54981;50.206;15.978;2023-01-29T14:13:36;99631.63;;;-1.49;100.00
68169;BME280;54981;50.206;15.978;2023-01-29T14:17:36;99632.50;;;-1.42;100.00
68169;BME280;54981;50.206;15.978;2023-01-29T14:21:37;99635.28;;;-0.99;100.00
68169;BME280;54981;50.206;15.978;2023-01-29T14:25:39;99637.78;;;-1.30;100.00
68169;BME280;54981;50.206;15.978;2023-01-29T14:29:40;99633.44;;;-1.34;100.00
68169;BME280;54981;50.206;15.978;2023-01-29T14:33:40;99629.78;;;-1.64;100.00
68169;BME280;54981;50.206;15.978;2023-01-29T14:37:45;99620.13;;;-1.82;100.00
68169;BME280;54981;50.206;15.978;2023-01-29T14:41:48;99611.44;;;-1.79;100.00
68169;BME280;54981;50.206;15.978;2023-01-29T14:45:49;99603.69;;;-1.64;100.00
68169;BME280;54981;50.206;15.978;2023-01-29T14:49:57;99606.31;;;-1.65;100.00
68169;BME280;54981;50.206;15.978;2023-01-29T14:54:01;99607.19;;;-1.62;100.00
68169;BME280;54981;50.206;15.978;2023-01-29T14:58:03;99608.06;;;-1.66;100.00
68169;BME280;54981;50.206;15.978;2023-01-29T15:02:54;99612.44;;;-1.53;100.00
68169;BME280;54981;50.206;15.978;2023-01-29T15:06:58;99612.41;;;-1.62;100.00
68169;BME280;54981;50.206;15.978;2023-01-29T15:11:03;99609.06;;;-1.24;100.00
68169;BME280;54981;50.206;15.978;2023-01-29T15:19:33;99615.94;;;-1.54;100.00
68169;BME280;54981;50.206;15.978;2023-01-29T15:23:34;99607.25;;;-1.46;100.00
68169;BME280;54981;50.206;15.978;2023-01-29T15:27:35;99605.69;;;-0.98;100.00
68169;BME280;54981;50.206;15.978;2023-01-29T15:31:35;99601.25;;;-1.16;100.00
68169;BME280;54981;50.206;15.978;2023-01-29T15:35:37;99598.59;;;-1.30;100.00
68169;BME280;54981;50.206;15.978;2023-01-29T15:39:42;99581.25;;;-1.07;100.00
68169;BME280;54981;50.206;15.978;2023-01-29T15:43:45;99581.25;;;-1.08;100.00
68169;BME280;54981;50.206;15.978;2023-01-29T15:47:46;99578.59;;;-1.23;100.00
68169;BME280;54981;50.206;15.978;2023-01-29T15:51:47;99592.53;;;-1.21;100.00
68169;BME280;54981;50.206;15.978;2023-01-29T15:55:47;99579.53;;;-0.95;100.00
68169;BME280;54981;50.206;15.978;2023-01-29T15:59:52;99588.13;;;-1.38;100.00
68169;BME280;54981;50.206;15.978;2023-01-29T16:03:54;99578.66;;;-1.08;100.00
68169;BME280;54981;50.206;15.978;2023-01-29T16:07:56;99589.94;;;-1.21;100.00
68169;BME280;54981;50.206;15.978;2023-01-29T16:11:57;99591.69;;;-1.22;100.00
68169;BME280;54981;50.206;15.978;2023-01-29T16:16:17;99590.78;;;-1.24;100.00
68169;BME280;54981;50.206;15.978;2023-01-29T16:20:42;99585.59;;;-1.22;100.00
68169;BME280;54981;50.206;15.978;2023-01-29T16:24:44;99580.41;;;-0.87;100.00
68169;BME280;54981;50.206;15.978;2023-01-29T16:28:47;99583.00;;;-0.99;100.00
68169;BME280;54981;50.206;15.978;2023-01-29T16:32:48;99586.47;;;-1.07;100.00
68169;BME280;54981;50.206;15.978;2023-01-29T16:36:48;99582.97;;;-1.12;100.00
68169;BME280;54981;50.206;15.978;2023-01-29T16:41:27;99578.63;;;-1.10;100.00
68169;BME280;54981;50.206;15.978;2023-01-29T16:45:29;99589.09;;;-1.10;100.00
68169;BME280;54981;50.206;15.978;2023-01-29T16:53:31;99603.84;;;-1.21;100.00
68169;BME280;54981;50.206;15.978;2023-01-29T16:57:32;99591.66;;;-1.20;100.00
68169;BME280;54981;50.206;15.978;2023-01-29T17:01:34;99589.97;;;-1.04;100.00
68169;BME280;54981;50.206;15.978;2023-01-29T17:05:36;99583.03;;;-0.87;100.00
68169;BME280;54981;50.206;15.978;2023-01-29T17:09:37;99588.25;;;-1.02;100.00
68169;BME280;54981;50.206;15.978;2023-01-29T17:13:40;99586.47;;;-1.13;100.00
68169;BME280;54981;50.206;15.978;2023-01-29T17:17:41;99582.97;;;-1.24;100.00
68169;BME280;54981;50.206;15.978;2023-01-29T17:21:42;99576.03;;;-1.10;100.00
68169;BME280;54981;50.206;15.978;2023-01-29T17:25:43;99576.03;;;-1.10;100.00
68169;BME280;54981;50.206;15.978;2023-01-29T17:29:43;99562.94;;;-1.03;100.00
68169;BME280;54981;50.206;15.978;2023-01-29T17:33:44;99559.50;;;-0.82;100.00
68169;BME280;54981;50.206;15.978;2023-01-29T17:37:44;99550.81;;;-0.86;100.00
68169;BME280;54981;50.206;15.978;2023-01-29T17:41:50;99538.56;;;-0.96;100.00
68169;BME280;54981;50.206;15.978;2023-01-29T17:45:51;99529.84;;;-1.06;100.00
68169;BME280;54981;50.206;15.978;2023-01-29T17:49:52;99516.81;;;-1.11;100.00
68169;BME280;54981;50.206;15.978;2023-01-29T17:53:52;99521.16;;;-0.97;100.00
68169;BME280;54981;50.206;15.978;2023-01-29T17:57:52;99515.03;;;-1.13;100.00
68169;BME280;54981;50.206;15.978;2023-01-29T18:01:53;99512.44;;;-1.22;100.00
68169;BME280;54981;50.206;15.978;2023-01-29T18:05:53;99510.66;;;-1.31;100.00
68169;BME280;54981;50.206;15.978;2023-01-29T18:09:53;99507.22;;;-1.12;100.00
68169;BME280;54981;50.206;15.978;2023-01-29T18:13:54;99500.19;;;-1.37;100.00
68169;BME280;54981;50.206;15.978;2023-01-29T18:17:55;99500.19;;;-1.33;100.00
68169;BME280;54981;50.206;15.978;2023-01-29T18:21:55;99492.38;;;-1.16;100.00
68169;BME280;54981;50.206;15.978;2023-01-29T18:25:56;99492.38;;;-1.34;100.00
68169;BME280;54981;50.206;15.978;2023-01-29T18:29:56;99500.25;;;-1.17;100.00
68169;BME280;54981;50.206;15.978;2023-01-29T18:33:57;99488.94;;;-1.10;100.00
68169;BME280;54981;50.206;15.978;2023-01-29T18:37:57;99477.59;;;-1.01;100.00
68169;BME280;54981;50.206;15.978;2023-01-29T18:41:57;99475.84;;;-0.81;100.00
68169;BME280;54981;50.206;15.978;2023-01-29T18:45:58;99481.94;;;-1.19;100.00
68169;BME280;54981;50.206;15.978;2023-01-29T18:49:58;99479.34;;;-1.17;100.00
68169;BME280;54981;50.206;15.978;2023-01-29T18:53:59;99481.09;;;-1.15;100.00
68169;BME280;54981;50.206;15.978;2023-01-29T18:58:00;99485.44;;;-1.12;100.00
68169;BME280;54981;50.206;15.978;2023-01-29T19:02:00;99482.81;;;-1.08;100.00
68169;BME280;54981;50.206;15.978;2023-01-29T19:06:02;99478.47;;;-1.12;100.00
68169;BME280;54981;50.206;15.978;2023-01-29T19:10:04;99479.31;;;-1.26;100.00
68169;BME280;54981;50.206;15.978;2023-01-29T19:14:11;99484.56;;;-1.26;100.00
68169;BME280;54981;50.206;15.978;2023-01-29T19:18:11;99484.53;;;-1.42;100.00
68169;BME280;54981;50.206;15.978;2023-01-29T19:22:12;99475.81;;;-1.48;100.00
68169;BME280;54981;50.206;15.978;2023-01-29T19:26:12;99487.16;;;-1.14;100.00
68169;BME280;54981;50.206;15.978;2023-01-29T19:30:14;99476.69;;;-1.39;100.00
68169;BME280;54981;50.206;15.978;2023-01-29T19:34:14;99476.72;;;-1.26;100.00
68169;BME280;54981;50.206;15.978;2023-01-29T19:38:14;99470.63;;;-0.96;100.00
68169;BME280;54981;50.206;15.978;2023-01-29T19:42:20;99462.78;;;-1.07;100.00
68169;BME280;54981;50.206;15.978;2023-01-29T19:46:21;99473.22;;;-1.21;100.00
68169;BME280;54981;50.206;15.978;2023-01-29T19:50:21;99464.50;;;-1.18;100.00
68169;BME280;54981;50.206;15.978;2023-01-29T19:54:21;99465.38;;;-1.25;100.00
68169;BME280;54981;50.206;15.978;2023-01-29T19:58:22;99458.41;;;-1.23;100.00
68169;BME280;54981;50.206;15.978;2023-01-29T20:02:24;99454.94;;;-1.13;100.00
68169;BME280;54981;50.206;15.978;2023-01-29T20:06:27;99454.06;;;-1.26;100.00
68169;BME280;54981;50.206;15.978;2023-01-29T20:10:30;99444.50;;;-1.01;100.00
68169;BME280;54981;50.206;15.978;2023-01-29T20:14:30;99447.97;;;-1.39;100.00
68169;BME280;54981;50.206;15.978;2023-01-29T20:18:30;99444.50;;;-1.19;100.00
68169;BME280;54981;50.206;15.978;2023-01-29T20:22:31;99441.00;;;-1.18;100.00
68169;BME280;54981;50.206;15.978;2023-01-29T20:26:31;99422.72;;;-1.29;100.00
68169;BME280;54981;50.206;15.978;2023-01-29T20:30:33;99415.75;;;-1.27;100.00
68169;BME280;54981;50.206;15.978;2023-01-29T20:34:34;99411.41;;;-1.36;100.00
68169;BME280;54981;50.206;15.978;2023-01-29T20:38:34;99392.25;;;-1.05;100.00
68169;BME280;54981;50.206;15.978;2023-01-29T20:42:35;99386.16;;;-1.32;100.00
68169;BME280;54981;50.206;15.978;2023-01-29T20:46:35;99379.19;;;-1.35;100.00
68169;BME280;54981;50.206;15.978;2023-01-29T20:50:37;99370.50;;;-1.41;100.00
68169;BME280;54981;50.206;15.978;2023-01-29T20:54:37;99365.25;;;-1.20;100.00
68169;BME280;54981;50.206;15.978;2023-01-29T20:58:37;99364.34;;;-1.16;100.00
68169;BME280;54981;50.206;15.978;2023-01-29T21:02:39;99362.63;;;-1.17;100.00
68169;BME280;54981;50.206;15.978;2023-01-29T21:06:40;99363.50;;;-1.19;100.00
68169;BME280;54981;50.206;15.978;2023-01-29T21:10:40;99362.63;;;-1.44;100.00
68169;BME280;54981;50.206;15.978;2023-01-29T21:14:40;99344.34;;;-1.52;100.00
68169;BME280;54981;50.206;15.978;2023-01-29T21:18:41;99339.13;;;-1.35;100.00
68169;BME280;54981;50.206;15.978;2023-01-29T21:22:41;99338.25;;;-1.45;100.00
68169;BME280;54981;50.206;15.978;2023-01-29T21:26:46;99331.31;;;-1.43;100.00
68169;BME280;54981;50.206;15.978;2023-01-29T21:30:46;99338.28;;;-1.59;100.00
68169;BME280;54981;50.206;15.978;2023-01-29T21:34:46;99337.41;;;-1.61;100.00
68169;BME280;54981;50.206;15.978;2023-01-29T21:38:47;99341.72;;;-1.81;100.00
68169;BME280;54981;50.206;15.978;2023-01-29T21:42:47;99351.28;;;-1.99;100.00
68169;BME280;54981;50.206;15.978;2023-01-29T21:47:06;99352.13;;;-2.01;100.00
68169;BME280;54981;50.206;15.978;2023-01-29T21:51:12;99349.53;;;-1.97;100.00
68169;BME280;54981;50.206;15.978;2023-01-29T21:55:13;99346.91;;;-2.03;100.00
68169;BME280;54981;50.206;15.978;2023-01-29T21:59:14;99340.81;;;-2.05;100.00
68169;BME280;54981;50.206;15.978;2023-01-29T22:03:15;99342.56;;;-2.01;100.00
68169;BME280;54981;50.206;15.978;2023-01-29T22:07:15;99335.56;;;-2.20;100.00
68169;BME280;54981;50.206;15.978;2023-01-29T22:11:15;99324.31;;;-2.04;100.00
68169;BME280;54981;50.206;15.978;2023-01-29T22:15:16;99320.75;;;-2.29;100.00
68169;BME280;54981;50.206;15.978;2023-01-29T22:19:16;99310.31;;;-2.43;100.00
68169;BME280;54981;50.206;15.978;2023-01-29T22:23:17;99299.84;;;-2.41;100.00
68169;BME280;54981;50.206;15.978;2023-01-29T22:27:17;99307.66;;;-2.46;100.00
68169;BME280;54981;50.206;15.978;2023-01-29T22:31:17;99300.72;;;-2.47;100.00
68169;BME280;54981;50.206;15.978;2023-01-29T22:35:17;99292.03;;;-2.44;100.00